createdAt,value
2019-04-16T00:01:38.422Z,2.92
2019-04-16T00:07:19.909Z,2.95
2019-04-16T00:12:53.429Z,2.82
2019-04-16T00:18:18.726Z,2.74
2019-04-16T00:24:04.790Z,2.59
2019-04-16T00:29:32.597Z,2.64
2019-04-16T00:34:53.758Z,2.48
2019-04-16T00:40:17.335Z,2.34
2019-04-16T00:45:41.841Z,2.27
2019-04-16T00:51:05.555Z,2.27
2019-04-16T00:56:29.796Z,2.20
2019-04-16T01:01:53.572Z,2.38
2019-04-16T01:07:18.006Z,2.40
2019-04-16T01:12:41.745Z,2.30
2019-04-16T01:18:08.088Z,2.25
2019-04-16T01:23:31.036Z,2.14
2019-04-16T01:29:02.457Z,2.14
2019-04-16T01:34:32.450Z,2.12
2019-04-16T01:39:58.374Z,2.01
2019-04-16T01:45:22.182Z,2.10
2019-04-16T01:50:45.770Z,1.98
2019-04-16T01:56:10.355Z,1.97
2019-04-16T02:01:34.932Z,2.02
2019-04-16T02:06:59.463Z,2.00
2019-04-16T02:12:23.377Z,2.10
2019-04-16T02:17:47.025Z,2.24
2019-04-16T02:23:13.534Z,2.18
2019-04-16T02:28:37.064Z,2.10
2019-04-16T02:34:00.853Z,1.96
2019-04-16T02:39:46.329Z,2.10
2019-04-16T02:44:50.677Z,2.11
2019-04-16T02:50:20.343Z,2.13
2019-04-16T02:55:45.791Z,2.15
2019-04-16T03:01:36.508Z,2.16
2019-04-16T03:07:03.408Z,2.16
2019-04-16T03:12:26.735Z,2.14
2019-04-16T03:17:51.270Z,2.14
2019-04-16T03:23:15.650Z,2.21
2019-04-16T03:28:39.844Z,2.24
2019-04-16T03:34:04.693Z,2.28
2019-04-16T03:39:28.408Z,2.21
2019-04-16T03:44:51.779Z,1.98
2019-04-16T03:50:16.330Z,1.83
2019-04-16T03:55:40.775Z,1.72
2019-04-16T04:01:05.105Z,1.61
2019-04-16T04:06:28.653Z,1.41
2019-04-16T04:11:52.450Z,1.13
2019-04-16T04:17:15.811Z,1.12
2019-04-16T04:22:40.454Z,1.04
2019-04-16T04:28:04.596Z,1.28
2019-04-16T04:33:40.879Z,1.40
2019-04-16T04:39:08.948Z,1.61
2019-04-16T04:44:29.562Z,1.93
2019-04-16T04:49:53.764Z,2.27
2019-04-16T04:55:17.771Z,2.65
2019-04-16T05:00:41.484Z,3.14
2019-04-16T05:06:06.703Z,3.63
2019-04-16T05:11:31.190Z,4.13
2019-04-16T05:16:55.372Z,4.69
2019-04-16T05:22:21.522Z,5.08
2019-04-16T05:27:45.487Z,5.52
2019-04-16T05:33:09.111Z,5.65
2019-04-16T05:38:32.552Z,5.86
2019-04-16T05:43:58.391Z,5.75
2019-04-16T05:49:25.657Z,6.08
2019-04-16T05:55:05.596Z,6.63
2019-04-16T06:00:38.467Z,6.97
2019-04-16T06:06:03.985Z,6.55
2019-04-16T06:11:35.520Z,7.17
2019-04-16T06:17:10.949Z,7.13
2019-04-16T06:22:44.180Z,7.54
2019-04-16T06:28:15.687Z,7.83
2019-04-16T06:33:51.557Z,8.14
2019-04-16T06:39:36.149Z,8.66
2019-04-16T06:45:04.920Z,8.67
2019-04-16T06:50:50.945Z,8.59
2019-04-16T06:56:31.791Z,9.08
2019-04-16T07:02:12.910Z,9.95
2019-04-16T07:07:48.652Z,9.71
2019-04-16T07:13:12.375Z,10.26
2019-04-16T07:18:38.729Z,10.86
2019-04-16T07:24:02.467Z,11.15
2019-04-16T07:29:36.179Z,11.09
2019-04-16T07:35:19.686Z,11.14
2019-04-16T07:41:11.918Z,12.44
2019-04-16T07:46:56.905Z,12.54
2019-04-16T07:52:32.375Z,13.11
2019-04-16T07:57:55.978Z,13.43
2019-04-16T08:03:23.573Z,12.93
2019-04-16T08:08:46.821Z,13.53
2019-04-16T08:14:10.520Z,12.89
2019-04-16T08:19:37.025Z,13.08
2019-04-16T08:25:03.820Z,12.84
2019-04-16T08:30:28.195Z,12.99
2019-04-16T08:35:52.356Z,13.55
2019-04-16T08:41:19.986Z,14.42
2019-04-16T08:46:41.251Z,14.40
2019-04-16T08:52:09.965Z,14.48
2019-04-16T08:57:32.038Z,14.28
2019-04-16T09:02:58.663Z,14.43
2019-04-16T09:08:28.342Z,14.08
2019-04-16T09:13:56.806Z,14.86
2019-04-16T09:19:20.853Z,15.15
2019-04-16T09:25:06.529Z,15.08
2019-04-16T09:30:46.596Z,14.41
2019-04-16T09:36:18.006Z,15.21
2019-04-16T09:41:43.827Z,15.21
2019-04-16T09:47:08.479Z,15.38
2019-04-16T09:52:31.942Z,15.52
2019-04-16T09:57:55.561Z,15.32
2019-04-16T10:03:30.710Z,15.90
2019-04-16T10:08:56.533Z,16.15
2019-04-16T10:14:19.600Z,15.75
2019-04-16T10:19:43.966Z,16.36
2019-04-16T10:25:15.236Z,16.39
2019-04-16T10:30:47.877Z,17.40
2019-04-16T10:36:11.476Z,16.51
2019-04-16T10:41:44.033Z,16.07
2019-04-16T10:47:25.806Z,15.88
2019-04-16T10:53:27.396Z,16.06
2019-04-16T10:58:57.120Z,16.74
2019-04-16T11:04:42.998Z,17.28
2019-04-16T11:10:04.845Z,16.38
2019-04-16T11:15:28.854Z,16.91
2019-04-16T11:20:52.463Z,17.08
2019-04-16T11:26:17.314Z,16.86
2019-04-16T11:31:41.781Z,17.59
2019-04-16T11:37:08.145Z,17.05
2019-04-16T11:42:31.089Z,17.95
2019-04-16T11:47:55.678Z,17.87
2019-04-16T11:53:20.935Z,17.29
2019-04-16T11:58:45.848Z,17.02
2019-04-16T12:04:17.075Z,17.57
2019-04-16T12:09:57.862Z,17.89
2019-04-16T12:15:34.734Z,18.61
2019-04-16T12:21:12.903Z,18.07
2019-04-16T12:27:05.408Z,18.45
2019-04-16T12:32:34.725Z,18.05
2019-04-16T12:38:12.135Z,17.70
2019-04-16T12:43:37.761Z,18.21
2019-04-16T12:49:19.066Z,18.36
2019-04-16T12:54:59.327Z,18.21
2019-04-16T13:00:45.031Z,19.02
2019-04-16T13:06:20.139Z,18.86
2019-04-16T13:11:54.114Z,18.16
2019-04-16T13:17:36.092Z,17.95
2019-04-16T13:23:03.456Z,18.57
2019-04-16T13:28:35.860Z,18.27
2019-04-16T13:34:00.056Z,18.08
2019-04-16T13:39:28.896Z,18.68
2019-04-16T13:45:25.580Z,19.58
2019-04-16T13:50:55.233Z,18.72
2019-04-16T13:56:22.856Z,18.56
2019-04-16T14:02:00.318Z,18.65
2019-04-16T14:07:25.555Z,18.80
2019-04-16T14:12:50.183Z,18.53
2019-04-16T14:18:14.130Z,18.24
2019-04-16T14:23:37.549Z,18.52
2019-04-16T14:29:05.576Z,18.74
2019-04-16T14:34:48.659Z,18.95
2019-04-16T14:40:21.211Z,18.80
2019-04-16T14:45:58.271Z,19.45
2019-04-16T14:51:13.072Z,19.45
2019-04-16T14:56:38.563Z,19.92
2019-04-16T15:02:11.080Z,19.64
2019-04-16T15:07:38.775Z,18.18
2019-04-16T15:13:20.411Z,17.93
2019-04-16T15:19:22.014Z,18.30
2019-04-16T15:24:51.217Z,17.96
2019-04-16T15:30:33.259Z,17.90
2019-04-16T15:36:01.128Z,17.67
2019-04-16T15:41:34.195Z,17.63
2019-04-16T15:47:19.915Z,17.48
2019-04-16T15:52:50.599Z,17.07
2019-04-16T15:58:46.040Z,16.92
2019-04-16T16:04:32.796Z,16.59
2019-04-16T16:10:14.164Z,16.80
2019-04-16T16:15:40.447Z,16.64
2019-04-16T16:21:03.558Z,16.66
2019-04-16T16:26:27.870Z,16.33
2019-04-16T16:31:51.557Z,16.13
2019-04-16T16:37:15.970Z,15.91
2019-04-16T16:42:40.154Z,16.00
2019-04-16T16:48:03.893Z,16.41
2019-04-16T16:53:43.830Z,16.32
2019-04-16T16:59:25.103Z,16.29
2019-04-16T17:04:50.636Z,16.13
2019-04-16T17:10:14.293Z,15.88
2019-04-16T17:15:37.942Z,15.29
2019-04-16T17:21:01.441Z,14.89
2019-04-16T17:26:25.022Z,14.96
2019-04-16T17:31:50.722Z,14.93
2019-04-16T17:37:15.266Z,14.32
2019-04-16T17:42:43.453Z,13.92
2019-04-16T17:48:18.055Z,13.65
2019-04-16T17:53:49.605Z,13.50
2019-04-16T17:59:20.910Z,13.25
2019-04-16T18:05:03.248Z,13.05
2019-04-16T18:10:37.182Z,12.75
2019-04-16T18:16:07.251Z,12.48
2019-04-16T18:21:53.032Z,12.30
2019-04-16T18:27:37.881Z,12.14
2019-04-16T18:33:17.754Z,12.02
2019-04-16T18:39:03.192Z,11.81
2019-04-16T18:44:34.232Z,11.67
2019-04-16T18:50:00.234Z,11.61
2019-04-16T18:55:24.401Z,11.43
2019-04-16T19:00:54.641Z,11.26
2019-04-16T19:06:19.262Z,11.19
2019-04-16T19:11:43.722Z,11.05
2019-04-16T19:17:08.079Z,10.89
2019-04-16T19:22:32.310Z,10.84
2019-04-16T19:27:56.010Z,10.76
2019-04-16T19:33:19.406Z,10.62
2019-04-16T19:38:42.723Z,10.53
2019-04-16T19:44:07.833Z,10.63
2019-04-16T19:49:31.617Z,10.55
2019-04-16T19:54:56.089Z,10.43
2019-04-16T20:00:22.925Z,10.34
2019-04-16T20:05:45.547Z,10.40
2019-04-16T20:11:09.259Z,10.35
2019-04-16T20:16:32.684Z,10.29
2019-04-16T20:21:56.925Z,10.16
2019-04-16T20:27:21.121Z,10.02
2019-04-16T20:32:45.399Z,10.02
2019-04-16T20:38:09.885Z,9.92
2019-04-16T20:43:33.240Z,9.88
2019-04-16T20:49:08.100Z,9.92
2019-04-16T20:54:22.578Z,9.75
2019-04-16T20:59:46.884Z,9.74
2019-04-16T21:05:22.050Z,9.66
2019-04-16T21:10:36.833Z,9.64
2019-04-16T21:16:02.891Z,9.67
2019-04-16T21:21:27.002Z,9.63
2019-04-16T21:26:51.906Z,9.60
2019-04-16T21:32:40.645Z,9.42
2019-04-16T21:38:19.913Z,9.32
2019-04-16T21:43:44.343Z,9.18
2019-04-16T21:49:08.967Z,8.97
2019-04-16T21:54:32.713Z,8.91
2019-04-16T21:59:58.930Z,8.82
2019-04-16T22:05:22.817Z,8.68
2019-04-16T22:10:47.240Z,8.66
2019-04-16T22:16:10.624Z,8.49
2019-04-16T22:21:34.945Z,8.41
2019-04-16T22:27:00.411Z,8.38
2019-04-16T22:32:27.018Z,8.40
2019-04-16T22:37:50.110Z,8.21
2019-04-16T22:43:39.618Z,8.18
2019-04-16T22:49:04.525Z,8.03
2019-04-16T22:54:28.099Z,8.10
2019-04-16T22:59:51.957Z,8.02
2019-04-16T23:05:16.473Z,7.90
2019-04-16T23:10:40.661Z,7.83
2019-04-16T23:16:05.471Z,7.73
2019-04-16T23:21:29.889Z,7.62
2019-04-16T23:26:53.515Z,7.49
2019-04-16T23:32:17.114Z,7.37
2019-04-16T23:37:41.589Z,7.39
2019-04-16T23:43:25.697Z,7.19
2019-04-16T23:48:56.461Z,7.07
2019-04-16T23:54:25.410Z,6.96
